createdAt,value
2022-09-29T00:01:39.193Z,91.34
2022-09-29T00:04:47.612Z,91.43
2022-09-29T00:07:52.868Z,91.11
2022-09-29T00:10:58.577Z,90.93
2022-09-29T00:14:04.064Z,91.49
2022-09-29T00:17:09.503Z,91.34
2022-09-29T00:20:17.553Z,91.35
2022-09-29T00:23:25.379Z,91.81
2022-09-29T00:26:30.533Z,91.82
2022-09-29T00:29:35.384Z,91.93
2022-09-29T00:32:40.744Z,91.84
2022-09-29T00:35:47.596Z,91.89
2022-09-29T00:38:54.363Z,91.91
2022-09-29T00:41:59.410Z,92.14
2022-09-29T00:45:14.712Z,91.90
2022-09-29T00:48:23.478Z,91.86
2022-09-29T00:51:31.333Z,92.61
2022-09-29T00:54:40.750Z,92.78
2022-09-29T00:57:50.784Z,92.92
2022-09-29T01:00:56.228Z,92.60
2022-09-29T01:04:05.953Z,92.82
2022-09-29T01:07:13.749Z,93.03
2022-09-29T01:10:19.769Z,93.49
2022-09-29T01:13:25.840Z,93.29
2022-09-29T01:16:31.483Z,93.86
2022-09-29T01:19:49.597Z,94.20
2022-09-29T01:23:50.673Z,94.28
2022-09-29T01:27:13.399Z,93.71
2022-09-29T01:30:23.741Z,93.18
2022-09-29T01:33:40.517Z,93.85
2022-09-29T01:36:57.179Z,94.28
2022-09-29T01:40:08.786Z,94.59
2022-09-29T01:43:19.235Z,94.90
2022-09-29T01:46:30.037Z,95.06
2022-09-29T01:49:40.219Z,95.17
2022-09-29T01:52:48.875Z,94.99
2022-09-29T01:55:56.689Z,95.25
2022-09-29T01:59:08.851Z,95.58
2022-09-29T02:02:20.176Z,95.74
2022-09-29T02:05:33.891Z,94.88
2022-09-29T02:08:42.564Z,94.10
2022-09-29T02:11:49.660Z,94.57
2022-09-29T02:14:56.421Z,95.06
2022-09-29T02:18:08.837Z,95.12
2022-09-29T02:21:17.427Z,95.56
2022-09-29T02:24:23.281Z,95.55
2022-09-29T02:27:29.146Z,95.55
2022-09-29T02:30:34.977Z,95.47
2022-09-29T02:33:39.924Z,95.50
2022-09-29T02:36:58.313Z,95.30
2022-09-29T02:40:14.031Z,95.62
2022-09-29T02:43:49.546Z,95.10
2022-09-29T02:47:15.965Z,94.78
2022-09-29T02:50:38.408Z,95.12
2022-09-29T02:53:58.148Z,95.31
2022-09-29T02:57:15.589Z,95.49
2022-09-29T03:00:22.215Z,95.36
2022-09-29T03:03:27.377Z,96.00
2022-09-29T03:06:32.902Z,95.90
2022-09-29T03:09:40.067Z,96.04
2022-09-29T03:12:45.350Z,96.20
2022-09-29T03:15:50.574Z,96.74
2022-09-29T03:18:57.681Z,96.52
2022-09-29T03:22:02.886Z,97.28
2022-09-29T03:25:11.650Z,97.31
2022-09-29T03:28:17.204Z,97.07
2022-09-29T03:31:22.749Z,97.24
2022-09-29T03:34:28.233Z,97.02
2022-09-29T03:37:35.082Z,96.35
2022-09-29T03:40:42.285Z,95.75
2022-09-29T03:43:47.193Z,95.75
2022-09-29T03:46:52.110Z,95.83
2022-09-29T03:49:57.252Z,95.67
2022-09-29T03:53:04.194Z,95.11
2022-09-29T03:56:12.554Z,95.17
2022-09-29T03:59:17.909Z,95.33
2022-09-29T04:02:23.021Z,95.22
2022-09-29T04:05:29.668Z,95.31
2022-09-29T04:08:34.850Z,95.06
2022-09-29T04:11:41.280Z,95.06
2022-09-29T04:14:46.321Z,94.66
2022-09-29T04:17:51.394Z,94.75
2022-09-29T04:20:57.994Z,94.78
2022-09-29T04:24:03.090Z,95.17
2022-09-29T04:27:09.734Z,95.23
2022-09-29T04:30:15.069Z,95.15
2022-09-29T04:33:20.244Z,95.38
2022-09-29T04:36:27.647Z,94.99
2022-09-29T04:39:32.520Z,94.70
2022-09-29T04:42:39.039Z,94.40
2022-09-29T04:45:44.773Z,94.29
2022-09-29T04:48:49.581Z,94.13
2022-09-29T04:51:54.571Z,93.55
2022-09-29T04:54:59.713Z,93.65
2022-09-29T04:58:06.111Z,93.59
2022-09-29T05:01:13.345Z,93.90
2022-09-29T05:04:18.310Z,93.89
2022-09-29T05:07:23.085Z,93.62
2022-09-29T05:10:28.769Z,93.71
2022-09-29T05:13:34.953Z,93.70
2022-09-29T05:16:40.070Z,93.60
2022-09-29T05:19:44.965Z,93.21
2022-09-29T05:22:50.022Z,93.19
2022-09-29T05:25:54.908Z,93.11
2022-09-29T05:29:01.400Z,93.19
2022-09-29T05:32:07.769Z,93.24
2022-09-29T05:35:13.230Z,93.85
2022-09-29T05:38:18.175Z,93.75
2022-09-29T05:41:24.097Z,93.83
2022-09-29T05:44:30.505Z,94.07
2022-09-29T05:47:35.315Z,94.22
2022-09-29T05:50:42.022Z,94.46
2022-09-29T05:53:46.986Z,94.27
2022-09-29T05:56:52.081Z,94.77
2022-09-29T05:59:58.294Z,95.13
2022-09-29T06:03:04.343Z,95.34
2022-09-29T06:06:10.449Z,94.94
2022-09-29T06:09:15.599Z,95.08
2022-09-29T06:12:21.922Z,95.40
2022-09-29T06:15:28.120Z,96.08
2022-09-29T06:18:33.849Z,96.01
2022-09-29T06:21:40.205Z,95.97
2022-09-29T06:24:45.504Z,95.96
2022-09-29T06:27:50.468Z,95.88
2022-09-29T06:31:02.040Z,95.32
2022-09-29T06:34:09.358Z,95.08
2022-09-29T06:37:30.930Z,95.54
2022-09-29T06:40:35.801Z,95.24
2022-09-29T06:43:42.717Z,95.66
2022-09-29T06:46:51.597Z,95.90
2022-09-29T06:50:04.219Z,95.65
2022-09-29T06:53:15.931Z,95.85
2022-09-29T06:56:21.370Z,95.68
2022-09-29T06:59:26.292Z,95.51
2022-09-29T07:02:32.666Z,95.21
2022-09-29T07:05:37.507Z,95.29
2022-09-29T07:08:42.580Z,94.60
2022-09-29T07:11:50.907Z,94.50
2022-09-29T07:14:56.611Z,94.73
2022-09-29T07:18:04.298Z,94.52
2022-09-29T07:21:11.145Z,94.61
2022-09-29T07:24:16.198Z,94.34
2022-09-29T07:27:24.527Z,94.37
2022-09-29T07:30:39.531Z,93.68
2022-09-29T07:33:47.887Z,93.11
2022-09-29T07:36:53.177Z,93.07
2022-09-29T07:39:57.800Z,92.87
2022-09-29T07:43:03.049Z,92.62
2022-09-29T07:46:08.479Z,92.91
2022-09-29T07:49:15.935Z,92.95
2022-09-29T07:52:20.826Z,93.00
2022-09-29T07:55:26.645Z,92.06
2022-09-29T07:58:36.096Z,91.73
2022-09-29T08:01:41.168Z,90.69
2022-09-29T08:04:47.526Z,90.10
2022-09-29T08:07:54.533Z,89.67
2022-09-29T08:11:05.616Z,89.71
2022-09-29T08:14:11.357Z,89.89
2022-09-29T08:17:17.374Z,90.07
2022-09-29T08:20:24.114Z,90.14
2022-09-29T08:23:29.106Z,90.62
2022-09-29T08:26:42.420Z,90.10
2022-09-29T08:29:48.886Z,89.89
2022-09-29T08:32:54.601Z,90.06
2022-09-29T08:36:02.127Z,89.24
2022-09-29T08:39:07.058Z,88.38
2022-09-29T08:42:21.298Z,87.57
2022-09-29T08:45:31.129Z,86.72
2022-09-29T08:48:50.442Z,86.06
2022-09-29T08:52:16.354Z,85.11
2022-09-29T08:55:32.874Z,83.14
2022-09-29T08:58:40.894Z,82.59
2022-09-29T09:01:57.981Z,82.45
2022-09-29T09:05:28.282Z,82.92
2022-09-29T09:08:52.444Z,83.42
2022-09-29T09:12:14.282Z,82.58
2022-09-29T09:15:39.965Z,81.37
2022-09-29T09:19:05.020Z,79.50
2022-09-29T09:22:22.377Z,76.96
2022-09-29T09:25:33.083Z,77.30
2022-09-29T09:28:41.316Z,77.74
2022-09-29T09:31:51.586Z,76.10
2022-09-29T09:35:16.657Z,76.00
2022-09-29T09:38:42.943Z,75.21
2022-09-29T09:41:53.492Z,75.70
2022-09-29T09:45:04.740Z,75.52
2022-09-29T09:48:15.160Z,76.06
2022-09-29T09:51:34.198Z,77.13
2022-09-29T09:54:42.872Z,75.38
2022-09-29T09:58:22.976Z,75.23
2022-09-29T10:01:28.415Z,75.39
2022-09-29T10:04:34.384Z,76.46
2022-09-29T10:07:39.422Z,76.64
2022-09-29T10:10:57.606Z,74.86
2022-09-29T10:14:13.815Z,75.60
2022-09-29T10:17:21.526Z,73.92
2022-09-29T10:20:35.962Z,73.70
2022-09-29T10:23:41.983Z,74.14
2022-09-29T10:26:51.119Z,73.29
2022-09-29T10:30:00.810Z,72.92
2022-09-29T10:33:11.101Z,71.28
2022-09-29T10:36:16.116Z,71.99
2022-09-29T10:39:35.391Z,73.09
2022-09-29T10:42:42.261Z,73.30
2022-09-29T10:45:51.707Z,71.53
2022-09-29T10:49:14.259Z,70.34
2022-09-29T10:52:26.052Z,67.60
2022-09-29T10:55:35.535Z,67.13
2022-09-29T10:58:57.659Z,65.93
2022-09-29T11:02:07.952Z,67.15
2022-09-29T11:05:22.277Z,67.31
2022-09-29T11:08:28.257Z,67.67
2022-09-29T11:11:34.841Z,66.30
2022-09-29T11:14:45.046Z,65.21
2022-09-29T11:17:54.285Z,66.01
2022-09-29T11:21:07.245Z,65.29
2022-09-29T11:24:24.878Z,65.38
2022-09-29T11:27:38.684Z,66.50
2022-09-29T11:30:55.246Z,64.38
2022-09-29T11:34:13.438Z,65.04
2022-09-29T11:37:33.041Z,64.41
2022-09-29T11:40:48.348Z,64.44
2022-09-29T11:43:56.502Z,63.53
2022-09-29T11:47:09.124Z,65.17
2022-09-29T11:50:25.783Z,66.17
2022-09-29T11:53:48.896Z,63.56
2022-09-29T11:56:58.135Z,65.63
2022-09-29T12:00:09.029Z,65.68
2022-09-29T12:03:25.347Z,64.83
2022-09-29T12:06:47.794Z,63.62
2022-09-29T12:10:24.959Z,64.18
2022-09-29T12:13:44.180Z,65.71
2022-09-29T12:16:57.824Z,65.87
2022-09-29T12:20:08.036Z,66.50
2022-09-29T12:23:16.946Z,66.73
2022-09-29T12:26:25.633Z,65.79
2022-09-29T12:29:36.552Z,65.72
2022-09-29T12:32:44.970Z,67.17
2022-09-29T12:35:55.055Z,66.11
2022-09-29T12:39:10.236Z,66.42
2022-09-29T12:42:34.144Z,67.35
2022-09-29T12:45:49.107Z,67.66
2022-09-29T12:49:01.604Z,67.89
2022-09-29T12:52:18.065Z,67.33
2022-09-29T12:55:31.417Z,66.83
2022-09-29T12:58:44.183Z,67.45
2022-09-29T13:01:52.183Z,67.39
2022-09-29T13:05:13.206Z,69.02
2022-09-29T13:08:40.756Z,66.56
2022-09-29T13:12:02.331Z,65.26
2022-09-29T13:15:36.800Z,65.96
2022-09-29T13:19:20.121Z,68.03
2022-09-29T13:22:39.105Z,70.04
2022-09-29T13:25:55.977Z,70.50
2022-09-29T13:29:05.169Z,70.57
2022-09-29T13:32:13.231Z,69.77
2022-09-29T13:35:20.641Z,70.11
2022-09-29T13:38:27.698Z,70.62
2022-09-29T13:41:38.428Z,71.57
2022-09-29T13:44:45.166Z,71.09
2022-09-29T13:47:51.809Z,69.99
2022-09-29T13:51:01.758Z,70.25
2022-09-29T13:54:29.585Z,70.94
2022-09-29T13:57:34.390Z,71.34
2022-09-29T14:00:46.051Z,73.45
2022-09-29T14:03:51.881Z,75.23
2022-09-29T14:07:00.949Z,74.61
2022-09-29T14:10:16.945Z,72.36
2022-09-29T14:13:27.596Z,71.75
2022-09-29T14:16:58.090Z,70.66
2022-09-29T14:20:09.514Z,71.13
2022-09-29T14:23:50.889Z,71.84
2022-09-29T14:26:56.603Z,72.75
2022-09-29T14:30:17.220Z,72.97
2022-09-29T14:33:26.602Z,74.14
2022-09-29T14:36:35.691Z,75.30
2022-09-29T14:39:42.165Z,74.95
2022-09-29T14:42:48.312Z,76.85
2022-09-29T14:46:45.579Z,77.04
2022-09-29T14:50:22.773Z,76.97
2022-09-29T14:53:48.554Z,77.24
2022-09-29T14:57:03.306Z,76.66
2022-09-29T15:00:17.692Z,76.96
2022-09-29T15:03:29.713Z,75.77
2022-09-29T15:06:36.023Z,76.28
2022-09-29T15:09:41.784Z,78.69
2022-09-29T15:12:51.538Z,79.41
2022-09-29T15:16:02.713Z,77.86
2022-09-29T15:19:25.290Z,75.78
2022-09-29T15:22:57.971Z,77.24
2022-09-29T15:26:03.275Z,76.19
2022-09-29T15:29:13.486Z,75.50
2022-09-29T15:32:24.910Z,75.09
2022-09-29T15:35:32.742Z,74.84
2022-09-29T15:38:41.381Z,74.78
2022-09-29T15:41:46.515Z,75.39
2022-09-29T15:44:58.246Z,76.16
2022-09-29T15:48:05.374Z,75.98
2022-09-29T15:51:19.636Z,75.82
2022-09-29T15:54:27.050Z,74.45
2022-09-29T15:57:45.231Z,73.67
2022-09-29T16:00:50.611Z,74.28
2022-09-29T16:03:59.393Z,75.29
2022-09-29T16:07:05.839Z,77.16
2022-09-29T16:10:17.582Z,77.62
2022-09-29T16:13:26.239Z,77.91
2022-09-29T16:16:39.854Z,78.71
2022-09-29T16:19:49.639Z,78.89
2022-09-29T16:22:54.733Z,80.75
2022-09-29T16:26:22.263Z,82.11
2022-09-29T16:29:33.301Z,81.91
2022-09-29T16:32:42.554Z,81.50
2022-09-29T16:36:02.316Z,82.64
2022-09-29T16:39:07.004Z,83.11
2022-09-29T16:42:19.859Z,83.24
2022-09-29T16:45:24.067Z,84.09
2022-09-29T16:48:30.172Z,84.10
2022-09-29T16:51:40.688Z,84.63
2022-09-29T16:54:45.987Z,84.90
2022-09-29T16:57:55.924Z,85.92
2022-09-29T17:00:58.859Z,85.98
2022-09-29T17:04:01.678Z,85.30
2022-09-29T17:07:04.357Z,85.25
2022-09-29T17:10:09.938Z,86.14
2022-09-29T17:13:15.821Z,85.76
2022-09-29T17:16:21.345Z,85.25
2022-09-29T17:19:24.116Z,85.32
2022-09-29T17:22:31.854Z,85.31
2022-09-29T17:25:35.505Z,85.64
2022-09-29T17:28:38.710Z,85.78
2022-09-29T17:31:41.384Z,85.94
2022-09-29T17:34:44.081Z,86.31
2022-09-29T17:37:47.654Z,86.33
2022-09-29T17:40:55.929Z,86.87
2022-09-29T17:44:00.335Z,87.25
2022-09-29T17:47:17.400Z,86.83
2022-09-29T17:50:30.029Z,87.16
2022-09-29T17:53:32.669Z,87.46
2022-09-29T17:56:40.955Z,87.06
2022-09-29T17:59:44.905Z,87.09
2022-09-29T18:02:47.881Z,87.83
2022-09-29T18:05:55.982Z,88.01
2022-09-29T18:08:58.706Z,87.91
2022-09-29T18:12:01.813Z,87.67
2022-09-29T18:15:06.946Z,88.45
2022-09-29T18:18:13.037Z,88.88
2022-09-29T18:21:20.142Z,89.23
2022-09-29T18:24:22.893Z,89.69
2022-09-29T18:27:27.411Z,90.29
2022-09-29T18:30:36.472Z,89.92
2022-09-29T18:33:39.228Z,89.51
2022-09-29T18:36:42.002Z,89.17
2022-09-29T18:39:44.596Z,89.56
2022-09-29T18:42:51.218Z,89.26
2022-09-29T18:45:57.357Z,89.77
2022-09-29T18:49:02.166Z,90.00
2022-09-29T18:52:04.819Z,90.37
2022-09-29T18:55:08.345Z,89.95
2022-09-29T18:58:14.498Z,90.01
2022-09-29T19:01:24.307Z,90.20
2022-09-29T19:04:26.978Z,90.49
2022-09-29T19:07:30.164Z,90.28
2022-09-29T19:10:37.276Z,90.48
2022-09-29T19:13:44.173Z,90.15
2022-09-29T19:16:55.564Z,90.50
2022-09-29T19:20:03.643Z,90.31
2022-09-29T19:23:10.732Z,90.58
2022-09-29T19:26:20.274Z,90.33
2022-09-29T19:29:26.652Z,89.30
2022-09-29T19:32:34.410Z,89.95
2022-09-29T19:35:40.092Z,89.85
2022-09-29T19:38:49.753Z,89.68
2022-09-29T19:41:57.763Z,90.04
2022-09-29T19:45:23.802Z,90.23
2022-09-29T19:48:43.074Z,90.22
2022-09-29T19:52:09.228Z,90.59
2022-09-29T19:55:36.341Z,91.14
2022-09-29T19:58:47.113Z,91.13
2022-09-29T20:02:17.756Z,90.95
2022-09-29T20:06:12.448Z,90.76
2022-09-29T20:09:40.357Z,91.59
2022-09-29T20:13:02.353Z,91.70
2022-09-29T20:19:46.037Z,92.28
2022-09-29T20:23:27.151Z,92.31
2022-09-29T20:26:42.741Z,92.39
2022-09-29T20:30:20.191Z,92.40
2022-09-29T20:33:35.403Z,92.08
2022-09-29T20:36:41.180Z,92.22
2022-09-29T20:39:55.904Z,93.09
2022-09-29T20:43:03.947Z,93.12
2022-09-29T20:46:15.870Z,93.18
2022-09-29T20:49:26.447Z,92.93
2022-09-29T20:52:38.115Z,93.07
2022-09-29T20:55:52.872Z,93.15
2022-09-29T20:59:01.914Z,93.64
2022-09-29T21:02:09.673Z,93.38
2022-09-29T21:05:18.352Z,93.25
2022-09-29T21:08:24.783Z,93.68
2022-09-29T21:11:38.974Z,93.90
2022-09-29T21:14:46.243Z,93.99
2022-09-29T21:17:52.670Z,93.82
2022-09-29T21:20:59.239Z,94.26
2022-09-29T21:24:05.626Z,93.86
2022-09-29T21:27:14.055Z,93.68
2022-09-29T21:30:20.059Z,94.01
2022-09-29T21:33:27.387Z,93.77
2022-09-29T21:36:34.881Z,93.75
2022-09-29T21:39:41.202Z,93.63
2022-09-29T21:42:52.785Z,93.23
2022-09-29T21:59:09.650Z,92.55
2022-09-29T22:02:23.442Z,91.79
2022-09-29T22:05:55.651Z,91.89
2022-09-29T22:09:32.068Z,91.77
2022-09-29T22:12:44.678Z,92.64
2022-09-29T22:15:52.720Z,93.40
2022-09-29T22:19:21.987Z,93.58
2022-09-29T22:22:26.126Z,93.94
2022-09-29T22:25:33.327Z,94.46
2022-09-29T22:28:39.616Z,94.97
2022-09-29T22:31:48.777Z,95.05
2022-09-29T22:34:55.567Z,95.06
2022-09-29T22:38:02.275Z,95.62
2022-09-29T22:41:11.764Z,95.53
2022-09-29T22:44:19.967Z,95.25
2022-09-29T22:47:28.996Z,95.87
2022-09-29T22:50:38.947Z,95.59
2022-09-29T22:53:48.141Z,96.04
2022-09-29T22:56:55.549Z,96.12
2022-09-29T23:00:04.020Z,95.78
2022-09-29T23:03:17.000Z,95.97
2022-09-29T23:06:23.902Z,95.69
2022-09-29T23:09:30.946Z,95.81
2022-09-29T23:12:43.310Z,96.40
2022-09-29T23:15:50.959Z,96.35
2022-09-29T23:19:01.031Z,97.25
2022-09-29T23:22:07.403Z,96.80
2022-09-29T23:25:14.006Z,96.67
2022-09-29T23:28:21.983Z,96.82
2022-09-29T23:31:28.965Z,97.04
2022-09-29T23:34:37.663Z,96.37
2022-09-29T23:38:00.142Z,96.12
2022-09-29T23:41:06.990Z,96.13
2022-09-29T23:44:13.963Z,95.60
2022-09-29T23:47:20.357Z,95.53
2022-09-29T23:50:30.555Z,95.76
2022-09-29T23:53:36.931Z,96.26
2022-09-29T23:56:43.600Z,96.47
2022-09-29T23:59:50.128Z,96.48
